Terminal Aerodrome Forecast
Issued by NWS Cleveland, OH

Home | Current Version | Previous Version | Text Only | Print | Product List | Glossary Off
Versions: 1 2 3 4 5 6 7 8 9 10 11 12 13 14 15 16 17 18 19 20 21

999
FTUS41 KCLE 221133
TAFYNG
TAF
KYNG 221133Z 2212/2312 15003KT P6SM SCT050 BKN120
     FM221300 16004KT 6SM -SHRA BR OVC035
      TEMPO 2213/2216 4SM -SHRA
     FM221600 19005KT P6SM VCTS OVC035CB
     FM222100 22006KT P6SM -SHRA VCTS SCT025CB OVC040
     FM230200 26007KT P6SM SCT030 BKN080
     FM230900 22004KT 6SM BR SCT007 BKN012=

USA.gov is the U.S. government's official web portal to all federal, state and local government web resources and services.